Time;durP1;ratioP1;P1;durP2;ratioP2;P2;SDS_P1;SDS_P2;PMS_P1;PMS_P2;Temp;Humidity;BMP_temperature;BMP_pressure;BME280_temperature;BME280_humidity;BME280_pressure;Samples;Min_cycle;Max_cycle;Signal;HPM_P1;HPM_P2
2021/05/22 00:01:58;;;;;;;10.02;5.78;;;10.70;95.60;;;;;;6169525;23;20008;-88
2021/05/22 00:04:24;;;;;;;9.43;5.57;;;10.60;95.60;;;;;;6168733;23;20088;-89
2021/05/22 00:06:49;;;;;;;10.23;6.38;;;10.60;95.90;;;;;;6183889;23;19997;-89
2021/05/22 00:09:15;;;;;;;9.63;5.95;;;10.60;96.00;;;;;;6166263;23;20028;-89
2021/05/22 00:11:41;;;;;;;8.43;5.50;;;10.60;96.10;;;;;;6162014;23;19997;-88
2021/05/22 00:14:07;;;;;;;8.93;6.13;;;10.60;96.10;;;;;;6161611;23;20443;-88
2021/05/22 00:16:34;;;;;;;7.65;5.55;;;10.50;96.30;;;;;;6162151;23;20064;-89
2021/05/22 00:19:00;;;;;;;9.95;6.15;;;10.50;96.40;;;;;;6162102;23;20490;-89
2021/05/22 00:21:26;;;;;;;8.90;6.70;;;10.50;96.50;;;;;;6177515;23;20009;-88
2021/05/22 00:23:52;;;;;;;8.02;6.25;;;10.50;96.60;;;;;;6176679;23;20009;-88
2021/05/22 00:26:17;;;;;;;9.85;5.82;;;10.50;96.70;;;;;;6162690;23;20024;-89
2021/05/22 00:28:43;;;;;;;8.52;6.13;;;10.40;96.70;;;;;;6162223;23;20088;-89
2021/05/22 00:31:09;;;;;;;7.40;6.15;;;10.40;96.80;;;;;;6162196;23;20021;-89
2021/05/22 00:33:35;;;;;;;9.00;6.18;;;10.40;96.90;;;;;;6189176;23;20052;-89
2021/05/22 00:36:00;;;;;;;7.53;5.97;;;10.40;97.10;;;;;;6181187;23;20016;-89
2021/05/22 00:38:26;;;;;;;7.97;6.20;;;10.40;97.10;;;;;;6191526;23;20009;-89
2021/05/22 00:40:52;;;;;;;9.68;6.40;;;10.40;97.20;;;;;;6161946;23;20009;-89
2021/05/22 00:43:18;;;;;;;9.32;6.38;;;10.40;97.30;;;;;;6163379;23;20372;-89
2021/05/22 00:45:44;;;;;;;8.90;6.78;;;10.40;97.30;;;;;;6167259;23;20024;-88
2021/05/22 00:48:10;;;;;;;7.93;6.28;;;10.30;97.40;;;;;;6163693;23;20001;-90
2021/05/22 00:50:41;;;;;;;12.02;7.05;;;10.30;97.40;;;;;;6161445;23;20005;-88
2021/05/22 00:53:09;;;;;;;7.15;6.35;;;10.30;97.70;;;;;;6162236;23;20001;-88
2021/05/22 00:55:35;;;;;;;7.00;6.30;;;10.30;97.70;;;;;;6163959;23;20017;-88
2021/05/22 00:58:03;;;;;;;10.88;7.47;;;10.20;97.80;;;;;;6162693;23;20008;-88
2021/05/22 01:00:49;;;;;;;7.22;6.30;;;10.20;97.90;;;;;;6166006;23;20059;-88
2021/05/22 01:03:27;;;;;;;8.60;6.93;;;10.20;98.00;;;;;;6179004;23;19997;-88
2021/05/22 01:06:08;;;;;;;8.73;6.57;;;10.20;98.80;;;;;;6165901;23;20052;-88
2021/05/22 01:08:36;;;;;;;8.02;5.95;;;10.20;98.80;;;;;;6163246;23;20041;-88
2021/05/22 01:11:11;;;;;;;9.77;7.07;;;10.10;98.50;;;;;;6190604;23;20023;-88
2021/05/22 01:13:38;;;;;;;8.15;6.65;;;10.10;98.60;;;;;;6176159;23;20004;-89
2021/05/22 01:16:06;;;;;;;7.70;6.82;;;10.00;98.60;;;;;;6175128;23;20409;-89
2021/05/22 01:18:33;;;;;;;9.43;6.43;;;9.90;98.70;;;;;;6173092;23;20013;-88
2021/05/22 01:21:01;;;;;;;8.52;7.35;;;10.00;99.00;;;;;;6185391;23;20009;-88
2021/05/22 01:23:32;;;;;;;8.43;7.00;;;9.90;99.10;;;;;;6180347;23;20016;-88
2021/05/22 01:25:59;;;;;;;9.40;7.32;;;9.90;99.40;;;;;;6210476;23;19989;-88
2021/05/22 01:28:25;;;;;;;9.85;8.25;;;9.90;99.40;;;;;;6183682;23;20005;-88
2021/05/22 01:30:51;;;;;;;8.98;7.35;;;9.80;99.70;;;;;;6182514;23;20029;-88
2021/05/22 01:33:20;;;;;;;11.18;7.20;;;9.80;99.50;;;;;;6171573;23;20088;-88
2021/05/22 01:35:46;;;;;;;10.15;8.13;;;9.80;99.70;;;;;;6191864;23;20446;-88
2021/05/22 01:38:12;;;;;;;8.98;7.70;;;9.70;99.70;;;;;;6166135;23;20016;-88
2021/05/22 01:40:38;;;;;;;9.05;7.20;;;9.70;99.80;;;;;;6165506;23;20088;-88
2021/05/22 01:43:06;;;;;;;10.77;7.95;;;9.70;99.90;;;;;;6162522;23;20443;-89
2021/05/22 01:45:35;;;;;;;10.52;7.60;;;9.70;99.90;;;;;;6167399;23;20001;-87
2021/05/22 01:48:03;;;;;;;10.43;7.78;;;9.70;99.90;;;;;;6166171;23;20056;-88
2021/05/22 01:50:33;;;;;;;9.15;7.68;;;9.70;99.90;;;;;;6163133;23;20005;-88
2021/05/22 01:53:02;;;;;;;12.30;9.15;;;9.60;99.90;;;;;;6161671;23;20015;-88
2021/05/22 01:55:28;;;;;;;9.82;8.15;;;9.60;99.90;;;;;;6175639;23;20036;-88
2021/05/22 01:57:54;;;;;;;10.85;7.97;;;9.50;99.90;;;;;;6175752;23;20007;-88
2021/05/22 02:00:20;;;;;;;11.02;9.13;;;9.50;99.90;;;;;;6162415;23;20036;-88
2021/05/22 02:03:01;;;;;;;10.02;7.97;;;9.50;99.90;;;;;;6167992;23;20001;-88
2021/05/22 02:05:29;;;;;;;8.98;7.40;;;9.60;99.90;;;;;;6185529;22;19990;-87
2021/05/22 02:07:57;;;;;;;9.88;7.60;;;9.50;99.90;;;;;;6213239;22;19995;-88
2021/05/22 02:10:25;;;;;;;9.95;7.53;;;9.50;99.90;;;;;;6186669;23;20000;-88
2021/05/22 02:12:54;;;;;;;9.80;7.30;;;9.50;99.90;;;;;;6212975;23;20025;-88
2021/05/22 02:15:22;;;;;;;11.90;8.07;;;9.50;99.90;;;;;;6187076;23;20104;-88
2021/05/22 02:17:48;;;;;;;9.43;7.60;;;9.60;99.90;;;;;;6187979;23;19993;-88
2021/05/22 02:20:15;;;;;;;11.55;7.68;;;9.60;99.90;;;;;;6206165;23;20020;-88
2021/05/22 02:22:43;;;;;;;9.85;7.13;;;9.60;99.90;;;;;;6164461;23;20005;-88
2021/05/22 02:25:11;;;;;;;9.57;7.57;;;9.60;99.90;;;;;;6162064;23;20049;-89
2021/05/22 02:27:37;;;;;;;9.93;7.20;;;9.60;99.90;;;;;;6162628;23;20004;-88
2021/05/22 02:30:15;;;;;;;9.90;8.20;;;9.60;99.90;;;;;;6188977;23;20008;-88
2021/05/22 02:32:44;;;;;;;8.77;7.30;;;9.70;99.90;;;;;;6173508;23;19997;-88
2021/05/22 02:35:12;;;;;;;10.43;7.50;;;9.70;99.90;;;;;;6195409;23;20021;-88
2021/05/22 02:37:39;;;;;;;9.93;7.95;;;9.70;99.90;;;;;;6162751;23;20424;-88
2021/05/22 02:40:12;;;;;;;10.93;8.40;;;9.80;99.90;;;;;;6163609;23;20063;-89
2021/05/22 02:42:39;;;;;;;10.30;7.90;;;9.80;99.90;;;;;;6163573;23;20020;-88
2021/05/22 02:45:07;;;;;;;12.07;8.88;;;9.80;99.90;;;;;;6163857;23;20045;-88
2021/05/22 02:47:34;;;;;;;10.80;8.45;;;9.90;99.90;;;;;;6163919;23;20020;-88
2021/05/22 02:50:09;;;;;;;12.10;8.98;;;9.90;99.90;;;;;;6163631;23;20088;-89
2021/05/22 02:52:38;;;;;;;12.93;9.18;;;9.90;99.90;;;;;;6189030;23;20054;-88
2021/05/22 02:55:06;;;;;;;13.10;9.13;;;9.90;99.90;;;;;;6167495;23;20068;-88
2021/05/22 02:57:38;;;;;;;11.23;9.57;;;9.90;99.90;;;;;;6164664;23;20001;-89
2021/05/22 03:00:06;;;;;;;10.80;8.45;;;10.00;99.90;;;;;;6175564;23;20013;-89
2021/05/22 03:02:33;;;;;;;12.45;9.75;;;10.10;99.90;;;;;;6166550;23;20021;-89
2021/05/22 03:04:59;;;;;;;12.38;9.32;;;10.10;99.90;;;;;;6163130;23;20021;-89
2021/05/22 03:07:26;;;;;;;12.63;9.23;;;10.20;99.90;;;;;;6161883;23;20376;-89
2021/05/22 03:09:52;;;;;;;10.27;7.95;;;10.20;99.90;;;;;;6162433;23;20020;-89
2021/05/22 03:12:24;;;;;;;9.52;7.50;;;10.30;99.90;;;;;;6189511;23;19993;-89
2021/05/22 03:14:51;;;;;;;8.60;7.15;;;10.40;99.90;;;;;;6163196;23;20051;-89
2021/05/22 03:17:17;;;;;;;9.57;7.07;;;10.40;99.90;;;;;;6189585;23;20021;-89
2021/05/22 03:19:42;;;;;;;8.90;6.40;;;10.50;99.90;;;;;;6162630;23;20013;-89
2021/05/22 03:22:08;;;;;;;9.70;6.72;;;10.60;99.90;;;;;;6162854;23;19997;-89
2021/05/22 03:24:34;;;;;;;9.73;6.78;;;10.60;99.90;;;;;;6162943;23;20339;-88
2021/05/22 03:27:00;;;;;;;7.18;5.93;;;10.70;99.90;;;;;;6167310;23;20008;-88
2021/05/22 03:29:26;;;;;;;10.27;7.07;;;10.80;99.80;;;;;;6179226;23;20074;-89
2021/05/22 03:31:51;;;;;;;8.48;5.97;;;10.90;99.80;;;;;;6164914;23;20335;-88
2021/05/22 03:34:17;;;;;;;10.23;7.03;;;11.00;99.70;;;;;;6190363;23;20013;-88
2021/05/22 03:36:44;;;;;;;6.63;5.80;;;11.10;99.60;;;;;;6166707;23;20017;-88
2021/05/22 03:39:09;;;;;;;7.07;5.68;;;11.20;99.40;;;;;;6165542;23;20009;-88
2021/05/22 03:41:35;;;;;;;7.18;5.53;;;11.30;99.10;;;;;;6163471;23;20376;-88
2021/05/22 03:44:01;;;;;;;7.55;6.20;;;11.40;98.90;;;;;;6164135;23;20025;-89
2021/05/22 03:46:27;;;;;;;8.77;7.05;;;11.50;98.90;;;;;;6162330;23;20005;-89
2021/05/22 03:48:53;;;;;;;7.93;6.57;;;11.70;98.60;;;;;;6163841;23;20009;-90
2021/05/22 03:51:18;;;;;;;12.05;6.95;;;11.80;98.30;;;;;;6166021;23;20001;-89
2021/05/22 03:53:44;;;;;;;10.40;7.22;;;11.90;98.10;;;;;;6168018;23;20016;-89
2021/05/22 03:56:10;;;;;;;10.25;6.93;;;12.10;98.00;;;;;;6167028;23;20021;-90
2021/05/22 03:58:36;;;;;;;9.07;6.35;;;12.20;97.70;;;;;;6164974;23;20016;-89
2021/05/22 04:01:02;;;;;;;8.40;6.95;;;12.30;97.40;;;;;;6167025;23;20016;-89
2021/05/22 04:03:27;;;;;;;9.27;6.53;;;12.40;97.20;;;;;;6175941;23;20330;-89
2021/05/22 04:05:53;;;;;;;7.53;6.53;;;12.50;97.00;;;;;;6180876;23;20005;-89
2021/05/22 04:08:19;;;;;;;7.75;6.40;;;12.60;97.00;;;;;;6172294;23;20347;-89
2021/05/22 04:10:45;;;;;;;8.55;6.30;;;12.70;96.70;;;;;;6164922;23;20087;-89
2021/05/22 04:13:10;;;;;;;7.63;5.60;;;12.80;96.70;;;;;;6164301;23;20005;-89
2021/05/22 04:15:36;;;;;;;6.95;5.65;;;13.00;96.60;;;;;;6191185;23;20015;-89
2021/05/22 04:18:02;;;;;;;6.53;5.82;;;13.10;96.20;;;;;;6165487;23;20009;-90
2021/05/22 04:20:28;;;;;;;7.60;5.35;;;13.30;95.90;;;;;;6165200;23;20048;-90
2021/05/22 04:22:54;;;;;;;7.40;5.75;;;13.40;95.80;;;;;;6163946;23;20005;-90
2021/05/22 04:25:20;;;;;;;5.82;5.13;;;13.50;95.50;;;;;;6164801;23;20012;-90
2021/05/22 04:27:47;;;;;;;6.05;4.85;;;13.70;95.30;;;;;;6164538;23;20510;-90
2021/05/22 04:30:13;;;;;;;9.48;5.43;;;13.90;94.80;;;;;;6165085;23;20013;-90
2021/05/22 04:32:39;;;;;;;5.85;5.22;;;14.10;94.40;;;;;;6164331;23;20009;-90
2021/05/22 04:35:06;;;;;;;8.27;5.82;;;14.30;93.70;;;;;;6166922;23;20024;-90
2021/05/22 04:37:32;;;;;;;6.50;5.22;;;14.40;92.80;;;;;;6167677;23;20005;-90
2021/05/22 04:39:58;;;;;;;6.75;5.40;;;14.50;92.40;;;;;;6163802;23;20032;-90
2021/05/22 04:42:24;;;;;;;6.60;5.55;;;14.60;92.20;;;;;;6165080;23;20009;-90
2021/05/22 04:44:50;;;;;;;5.32;4.68;;;14.80;92.10;;;;;;6166523;23;20005;-90
2021/05/22 04:47:15;;;;;;;7.00;5.20;;;14.90;91.70;;;;;;6164994;23;20040;-90
2021/05/22 04:49:41;;;;;;;6.30;5.13;;;15.20;91.10;;;;;;6166831;23;20030;-90
2021/05/22 04:52:07;;;;;;;5.47;4.50;;;15.40;90.60;;;;;;6165390;23;20005;-90
2021/05/22 04:54:40;;;;;;;5.88;4.90;;;15.70;90.00;;;;;;6169616;23;20009;-89
2021/05/22 04:57:06;;;;;;;5.07;4.53;;;16.00;89.50;;;;;;6164205;23;20017;-89
2021/05/22 04:59:32;;;;;;;5.20;4.68;;;16.30;89.70;;;;;;6191492;23;20012;-89
2021/05/22 05:01:58;;;;;;;6.47;4.75;;;16.60;90.20;;;;;;6163513;23;20036;-90
2021/05/22 05:04:24;;;;;;;6.03;4.65;;;17.10;90.40;;;;;;6164285;23;20031;-89
2021/05/22 05:06:50;;;;;;;7.63;4.70;;;17.60;90.20;;;;;;6164448;23;20009;-89
2021/05/22 05:09:15;;;;;;;5.47;3.80;;;18.10;89.60;;;;;;6164788;23;20009;-90
2021/05/22 05:11:41;;;;;;;6.95;4.40;;;18.60;88.20;;;;;;6165155;23;20001;-89
2021/05/22 05:14:07;;;;;;;4.57;4.07;;;19.00;85.00;;;;;;6178176;22;20068;-89
2021/05/22 05:16:33;;;;;;;6.20;4.45;;;19.40;84.20;;;;;;6176662;23;20154;-90
2021/05/22 05:18:58;;;;;;;5.10;4.38;;;19.80;82.00;;;;;;6162427;23;20443;-90
2021/05/22 05:21:24;;;;;;;7.32;4.00;;;20.10;78.20;;;;;;6163699;23;20445;-89
2021/05/22 05:23:50;;;;;;;5.93;3.50;;;20.50;77.60;;;;;;6189612;23;20013;-90
2021/05/22 05:26:16;;;;;;;5.13;3.60;;;20.90;74.70;;;;;;6162888;23;20428;-90
2021/05/22 05:28:42;;;;;;;5.53;3.88;;;21.40;70.90;;;;;;6163491;23;20009;-90
2021/05/22 05:31:07;;;;;;;4.65;3.70;;;21.90;69.20;;;;;;6165129;23;20001;-89
2021/05/22 05:33:34;;;;;;;7.78;3.47;;;22.30;68.40;;;;;;6163996;23;20009;-89
2021/05/22 05:35:59;;;;;;;4.65;3.40;;;22.70;68.20;;;;;;6167596;23;20025;-90
2021/05/22 05:38:26;;;;;;;3.47;2.60;;;23.20;65.60;;;;;;6164943;23;20312;-89
2021/05/22 05:40:55;;;;;;;3.22;2.80;;;23.50;64.30;;;;;;6164181;23;20045;-90
2021/05/22 05:43:21;;;;;;;4.40;2.50;;;23.90;62.00;;;;;;6164137;23;20319;-90
2021/05/22 05:45:50;;;;;;;2.92;2.50;;;24.10;60.40;;;;;;6164553;23;20092;-91
2021/05/22 05:48:16;;;;;;;4.18;2.70;;;24.20;59.90;;;;;;6163069;23;20001;-89
2021/05/22 05:50:45;;;;;;;2.78;2.50;;;24.40;59.20;;;;;;6166663;23;20064;-89
2021/05/22 05:53:14;;;;;;;5.03;2.53;;;24.50;58.10;;;;;;6173048;23;20076;-88
2021/05/22 05:55:40;;;;;;;2.70;2.20;;;24.60;57.90;;;;;;6162960;23;20021;-89
2021/05/22 05:58:08;;;;;;;6.63;2.90;;;24.90;57.40;;;;;;6164334;23;20021;-89
2021/05/22 06:00:34;;;;;;;2.70;2.25;;;25.10;55.60;;;;;;6164781;23;20035;-89
2021/05/22 06:03:00;;;;;;;6.07;2.40;;;25.30;55.10;;;;;;6162165;23;20028;-88
2021/05/22 06:05:26;;;;;;;4.40;2.72;;;25.40;54.20;;;;;;6167498;23;20021;-89
2021/05/22 06:07:51;;;;;;;3.45;2.40;;;25.50;52.80;;;;;;6162902;23;20029;-91
2021/05/22 06:10:17;;;;;;;3.83;2.25;;;25.70;51.20;;;;;;6190668;23;20048;-91
2021/05/22 06:12:45;;;;;;;4.93;2.88;;;25.70;50.70;;;;;;6167499;23;20001;-91
2021/05/22 06:17:44;;;;;;;3.53;2.30;;;26.00;50.80;;;;;;6190646;23;20064;-93
2021/05/22 06:20:11;;;;;;;8.07;2.70;;;26.20;51.20;;;;;;6177873;23;20020;-91
2021/05/22 06:22:37;;;;;;;4.63;2.30;;;26.50;51.20;;;;;;6175758;23;20001;-90
2021/05/22 06:25:04;;;;;;;3.47;2.88;;;26.70;50.00;;;;;;6177769;23;19996;-91
2021/05/22 06:27:29;;;;;;;3.08;2.42;;;26.60;47.90;;;;;;6174320;23;20092;-90
2021/05/22 06:29:56;;;;;;;3.75;2.17;;;26.60;47.60;;;;;;6169531;23;20087;-90
2021/05/22 06:32:21;;;;;;;3.28;2.50;;;26.60;47.90;;;;;;6164728;23;20009;-86
2021/05/22 06:34:47;;;;;;;6.68;3.40;;;26.70;48.10;;;;;;6163019;23;20005;-86
2021/05/22 06:37:13;;;;;;;5.80;3.15;;;26.90;47.50;;;;;;6189633;23;20012;-87
2021/05/22 06:39:39;;;;;;;8.43;3.17;;;27.20;47.60;;;;;;6166244;23;20339;-89
2021/05/22 06:42:05;;;;;;;9.63;3.80;;;27.50;47.50;;;;;;6166854;23;20343;-90
2021/05/22 06:44:35;;;;;;;7.97;3.97;;;27.90;44.30;;;;;;6164315;23;20331;-88
2021/05/22 06:47:01;;;;;;;9.82;4.30;;;27.80;45.00;;;;;;6164342;23;20005;-86
2021/05/22 06:49:31;;;;;;;13.82;5.88;;;27.90;45.20;;;;;;6165240;23;20010;-87
2021/05/22 06:51:59;;;;;;;7.63;3.30;;;28.00;44.90;;;;;;6161002;23;20009;-90
2021/05/22 06:54:25;;;;;;;10.27;4.00;;;28.10;43.50;;;;;;6165233;23;20115;-88
2021/05/22 06:56:51;;;;;;;10.52;4.85;;;28.00;42.70;;;;;;6161223;23;20126;-90
2021/05/22 06:59:17;;;;;;;12.82;5.10;;;28.20;43.10;;;;;;6164580;23;20016;-90
2021/05/22 07:01:43;;;;;;;11.10;5.95;;;28.30;43.00;;;;;;6162490;23;20096;-89
2021/05/22 07:04:08;;;;;;;11.07;5.78;;;28.80;43.20;;;;;;6161196;23;20088;-90
2021/05/22 07:06:34;;;;;;;8.52;4.38;;;29.20;42.50;;;;;;6163694;23;20088;-89
2021/05/22 07:09:00;;;;;;;12.57;6.07;;;29.70;42.20;;;;;;6163752;23;20009;-89
2021/05/22 07:11:26;;;;;;;9.85;5.20;;;30.30;42.20;;;;;;6188672;23;20001;-88
2021/05/22 07:13:52;;;;;;;14.02;7.20;;;30.90;41.90;;;;;;6189565;23;20005;-86
2021/05/22 07:16:19;;;;;;;19.70;10.02;;;31.20;38.60;;;;;;6165750;23;20035;-87
2021/05/22 07:18:44;;;;;;;27.67;12.98;;;31.00;38.00;;;;;;6165927;23;20012;-89
2021/05/22 07:21:10;;;;;;;14.60;8.23;;;30.70;37.00;;;;;;6164885;23;20061;-89
2021/05/22 07:23:36;;;;;;;10.68;5.07;;;30.40;38.10;;;;;;6168042;23;20351;-89
2021/05/22 07:26:03;;;;;;;8.07;3.90;;;30.10;36.90;;;;;;6185560;23;20017;-87
2021/05/22 07:28:31;;;;;;;7.38;3.53;;;30.00;36.60;;;;;;6170246;23;20454;-91
2021/05/22 07:30:59;;;;;;;6.20;3.03;;;30.10;38.30;;;;;;6160234;23;20036;-90
2021/05/22 07:33:26;;;;;;;7.38;2.90;;;30.40;36.40;;;;;;6163313;23;20041;-92
2021/05/22 07:35:53;;;;;;;2.72;1.65;;;30.50;36.60;;;;;;6164287;23;20077;-87
2021/05/22 07:38:19;;;;;;;2.17;1.60;;;30.40;35.80;;;;;;6161006;23;20013;-90
2021/05/22 07:40:44;;;;;;;3.22;1.98;;;30.60;36.70;;;;;;6167606;23;20526;-87
2021/05/22 07:43:10;;;;;;;3.95;1.77;;;30.90;35.50;;;;;;6188262;23;20005;-88
2021/05/22 07:45:36;;;;;;;5.32;2.50;;;30.90;35.90;;;;;;6166253;23;20292;-91
2021/05/22 07:48:03;;;;;;;5.40;3.20;;;31.00;34.10;;;;;;6163150;23;20039;-91
2021/05/22 07:50:30;;;;;;;6.97;2.83;;;30.80;33.80;;;;;;6166211;23;20009;-90
2021/05/22 07:52:56;;;;;;;5.93;3.20;;;30.40;34.30;;;;;;6189349;23;20084;-89
2021/05/22 07:55:22;;;;;;;5.50;2.85;;;30.20;35.10;;;;;;6161359;23;20183;-89
2021/05/22 07:57:49;;;;;;;5.40;2.60;;;30.50;35.70;;;;;;6162974;23;20004;-89
2021/05/22 08:00:15;;;;;;;5.97;3.05;;;31.00;35.90;;;;;;6166260;23;20013;-88
2021/05/22 08:02:42;;;;;;;3.75;1.80;;;31.50;35.70;;;;;;6173444;23;20005;-87
2021/05/22 08:05:09;;;;;;;2.45;1.63;;;32.10;34.90;;;;;;6165909;23;20013;-86
2021/05/22 08:07:35;;;;;;;3.58;2.00;;;32.10;33.30;;;;;;6165703;23;20009;-89
2021/05/22 08:10:01;;;;;;;3.60;2.50;;;31.90;32.70;;;;;;6188586;23;20005;-85
2021/05/22 08:12:26;;;;;;;7.40;2.35;;;31.70;32.90;;;;;;6159056;23;20005;-86
2021/05/22 08:14:52;;;;;;;6.60;2.45;;;31.70;33.60;;;;;;6159610;23;20044;-87
2021/05/22 08:17:19;;;;;;;4.65;2.58;;;31.90;33.30;;;;;;6158801;23;20005;-89
2021/05/22 08:19:46;;;;;;;4.95;2.40;;;32.20;33.60;;;;;;6135030;23;20013;-87
2021/05/22 08:22:11;;;;;;;4.82;2.65;;;32.70;33.70;;;;;;6162298;23;19997;-88
2021/05/22 08:24:37;;;;;;;3.90;2.40;;;33.20;33.50;;;;;;6162041;23;20028;-89
2021/05/22 08:27:03;;;;;;;4.00;2.17;;;33.60;33.40;;;;;;6159500;23;20016;-89
2021/05/22 08:29:29;;;;;;;4.53;2.60;;;33.60;33.50;;;;;;6158207;23;20017;-88
2021/05/22 08:31:55;;;;;;;7.10;2.60;;;33.50;33.50;;;;;;6157600;23;20005;-89
2021/05/22 08:34:21;;;;;;;3.20;1.95;;;33.90;33.60;;;;;;6186071;23;20335;-89
2021/05/22 08:36:47;;;;;;;8.15;2.72;;;34.60;33.50;;;;;;6161756;23;20017;-91
2021/05/22 08:39:13;;;;;;;4.00;2.58;;;34.70;31.80;;;;;;6167714;23;20009;-89
2021/05/22 08:41:42;;;;;;;5.15;2.80;;;34.20;31.30;;;;;;6169706;23;20016;-89
2021/05/22 08:44:08;;;;;;;5.32;2.20;;;33.70;31.00;;;;;;6170078;23;20012;-89
2021/05/22 08:46:34;;;;;;;6.28;2.30;;;33.20;31.90;;;;;;6158948;23;20014;-90
2021/05/22 08:49:00;;;;;;;1.25;1.00;;;33.30;32.30;;;;;;6159864;23;20170;-89
2021/05/22 08:51:26;;;;;;;3.13;1.20;;;33.50;31.30;;;;;;6188231;23;20001;-89
2021/05/22 08:53:52;;;;;;;1.45;0.88;;;33.70;30.90;;;;;;6158504;23;20387;-88
2021/05/22 08:56:17;;;;;;;3.60;0.80;;;33.90;31.50;;;;;;6157071;23;20044;-88
2021/05/22 08:58:44;;;;;;;2.20;0.93;;;34.40;31.60;;;;;;6161511;23;20144;-89
2021/05/22 09:01:11;;;;;;;3.63;0.88;;;35.00;31.10;;;;;;6158322;23;20015;-89
2021/05/22 09:03:37;;;;;;;0.50;0.50;;;35.40;30.90;;;;;;6158274;23;20088;-89
2021/05/22 09:06:03;;;;;;;1.25;0.88;;;35.70;30.60;;;;;;6159577;23;20033;-88
2021/05/22 09:08:34;;;;;;;0.70;0.68;;;35.80;30.50;;;;;;6160448;23;20020;-89
2021/05/22 09:11:06;;;;;;;3.78;1.02;;;36.30;30.80;;;;;;6166562;23;20052;-87
2021/05/22 09:13:33;;;;;;;2.05;1.02;;;36.90;30.00;;;;;;6161601;23;20012;-88
2021/05/22 09:15:59;;;;;;;2.17;1.20;;;37.00;30.30;;;;;;6162783;23;20027;-89
2021/05/22 09:18:26;;;;;;;3.30;1.00;;;37.30;30.40;;;;;;6162922;23;20009;-89
2021/05/22 09:20:59;;;;;;;2.92;1.10;;;37.60;30.10;;;;;;6161453;23;20415;-89
2021/05/22 09:23:28;;;;;;;2.38;1.10;;;37.40;29.50;;;;;;6159185;23;20013;-90
2021/05/22 09:26:06;;;;;;;2.65;1.30;;;37.40;30.10;;;;;;6159127;23;20089;-89
2021/05/22 09:28:34;;;;;;;1.58;1.10;;;37.70;30.10;;;;;;6159482;23;20133;-88
2021/05/22 09:31:01;;;;;;;2.58;1.02;;;38.10;30.00;;;;;;6158622;23;20009;-91
2021/05/22 09:33:31;;;;;;;1.15;0.90;;;38.10;28.90;;;;;;6161256;23;20315;-89
2021/05/22 09:36:11;;;;;;;1.02;0.90;;;37.80;29.00;;;;;;6160310;23;20025;-87
2021/05/22 09:38:38;;;;;;;1.40;0.90;;;37.30;29.10;;;;;;6159266;23;20039;-89
2021/05/22 09:41:13;;;;;;;2.72;0.80;;;37.00;28.40;;;;;;6157179;23;20005;-88
2021/05/22 09:43:39;;;;;;;1.15;0.90;;;36.50;28.80;;;;;;6159539;23;20060;-88
2021/05/22 09:46:09;;;;;;;2.63;1.02;;;36.30;29.40;;;;;;6162483;23;20001;-88
2021/05/22 09:48:36;;;;;;;1.30;1.00;;;36.40;28.90;;;;;;6157601;23;20434;-89
2021/05/22 09:51:05;;;;;;;1.60;1.13;;;36.40;29.10;;;;;;6157807;23;20329;-85
2021/05/22 09:53:38;;;;;;;2.28;1.50;;;36.50;29.00;;;;;;6162919;23;20013;-89
2021/05/22 09:56:21;;;;;;;2.20;0.98;;;36.30;28.40;;;;;;6159891;23;20123;-87
2021/05/22 09:58:52;;;;;;;;;;;36.10;28.70;;;;;;6160834;23;20017;-87
2021/05/22 10:01:22;;;;;;;1.23;1.08;;;36.40;29.30;;;;;;6162780;23;19912;-90
2021/05/22 10:03:48;;;;;;;1.83;1.08;;;36.50;29.10;;;;;;6162037;23;20009;-90
2021/05/22 10:06:15;;;;;;;2.00;1.30;;;36.50;28.40;;;;;;6163491;23;20005;-89
2021/05/22 10:08:42;;;;;;;5.32;1.73;;;36.10;28.50;;;;;;6161769;23;20013;-88
2021/05/22 10:11:08;;;;;;;1.48;1.25;;;35.80;28.70;;;;;;6160884;23;20005;-88
2021/05/22 10:13:35;;;;;;;2.40;1.10;;;35.50;29.10;;;;;;6168043;23;20023;-88
2021/05/22 10:16:03;;;;;;;2.67;1.25;;;35.50;29.30;;;;;;6162511;23;20016;-89
2021/05/22 10:18:31;;;;;;;2.00;1.52;;;35.80;29.50;;;;;;6162078;23;20024;-88
2021/05/22 10:20:59;;;;;;;4.05;1.20;;;36.10;29.20;;;;;;6159799;23;20085;-87
2021/05/22 10:23:25;;;;;;;2.05;1.70;;;36.10;28.70;;;;;;6187733;23;20009;-86
2021/05/22 10:25:53;;;;;;;1.30;1.17;;;35.80;28.50;;;;;;6158150;23;20331;-87
2021/05/22 10:28:19;;;;;;;1.90;1.27;;;35.80;28.80;;;;;;6189754;23;20349;-87
2021/05/22 10:30:46;;;;;;;1.17;1.08;;;36.00;28.60;;;;;;6186715;23;20324;-89
2021/05/22 10:33:15;;;;;;;2.80;1.52;;;36.00;28.60;;;;;;6162130;23;20016;-88
2021/05/22 10:35:48;;;;;;;2.30;1.60;;;35.60;28.60;;;;;;6160026;23;20079;-88
2021/05/22 10:38:32;;;;;;;2.50;1.70;;;35.30;28.50;;;;;;6161941;23;20005;-87
2021/05/22 10:41:00;;;;;;;3.05;1.38;;;35.10;28.80;;;;;;6161000;23;20009;-88
2021/05/22 10:44:00;;;;;;;2.20;1.50;;;34.80;28.80;;;;;;6136770;23;20016;-88
2021/05/22 10:46:26;;;;;;;2.20;1.30;;;35.10;29.00;;;;;;6099318;23;20281;-87
2021/05/22 10:48:53;;;;;;;2.03;1.30;;;35.40;29.00;;;;;;6168112;23;20072;-89
2021/05/22 10:51:34;;;;;;;3.95;1.77;;;35.90;28.50;;;;;;6165293;23;20032;-91
2021/05/22 10:54:03;;;;;;;3.85;1.40;;;36.00;28.60;;;;;;6163683;23;20084;-88
2021/05/22 10:56:30;;;;;;;3.70;1.80;;;36.10;28.10;;;;;;6189716;23;20020;-89
2021/05/22 10:58:59;;;;;;;3.78;1.90;;;35.80;27.70;;;;;;6161326;23;20088;-86
2021/05/22 11:01:26;;;;;;;3.15;1.48;;;35.70;28.10;;;;;;6160403;23;20055;-88
2021/05/22 11:06:51;;;;;;;3.42;1.83;;;36.40;28.20;;;;;;6186479;23;20024;-90
2021/05/22 11:09:34;;;;;;;4.15;1.58;;;36.80;27.70;;;;;;6160264;23;20005;-90
2021/05/22 11:12:29;;;;;;;2.10;1.40;;;36.90;28.10;;;;;;6159869;23;20020;-91
2021/05/22 11:14:56;;;;;;;5.18;1.73;;;36.90;28.00;;;;;;6160424;23;20016;-91
2021/05/22 11:17:22;;;;;;;2.60;1.80;;;36.80;27.80;;;;;;6160194;23;20004;-88
2021/05/22 11:20:00;;;;;;;2.65;1.92;;;36.60;27.80;;;;;;6161767;23;20079;-90
2021/05/22 11:23:02;;;;;;;3.58;1.65;;;36.60;27.80;;;;;;6189451;23;20028;-88
2021/05/22 11:25:43;;;;;;;3.22;1.50;;;36.50;27.40;;;;;;6160495;23;20071;-88
2021/05/22 11:28:11;;;;;;;4.68;1.35;;;36.50;27.90;;;;;;6161044;23;20001;-89
2021/05/22 11:30:44;;;;;;;2.03;1.50;;;36.80;28.20;;;;;;6161395;23;20032;-89
2021/05/22 11:33:26;;;;;;;;;;;37.10;27.60;;;;;;6160816;23;20016;-88
2021/05/22 11:35:56;;;;;;;1.85;1.60;;;36.70;27.70;;;;;;6162112;23;19920;-89
2021/05/22 11:38:22;;;;;;;1.80;1.42;;;36.00;27.30;;;;;;6162434;23;19997;-89
2021/05/22 11:40:49;;;;;;;3.75;1.40;;;35.30;27.50;;;;;;6161802;23;20013;-89
2021/05/22 11:43:16;;;;;;;2.08;1.52;;;34.90;28.00;;;;;;6162076;23;20001;-88
2021/05/22 11:45:50;;;;;;;3.55;1.80;;;34.70;27.90;;;;;;6166193;23;20186;-86
2021/05/22 11:48:42;;;;;;;1.95;1.55;;;34.60;27.90;;;;;;6190110;23;19997;-86
2021/05/22 11:51:24;;;;;;;1.70;1.58;;;34.50;27.90;;;;;;6161155;23;20348;-89
2021/05/22 11:54:15;;;;;;;2.05;1.60;;;33.90;28.40;;;;;;6161817;23;20064;-87
2021/05/22 11:56:41;;;;;;;2.55;1.10;;;33.60;28.50;;;;;;6169024;23;20079;-87
2021/05/22 11:59:12;;;;;;;1.60;1.45;;;33.20;28.60;;;;;;6189316;23;20419;-85
2021/05/22 12:01:39;;;;;;;2.75;1.50;;;33.20;28.90;;;;;;6187290;23;19997;-86
2021/05/22 12:04:10;;;;;;;1.83;1.23;;;33.00;28.60;;;;;;6160802;23;20013;-85
2021/05/22 12:06:39;;;;;;;1.27;1.10;;;32.20;28.60;;;;;;6187075;23;19997;-86
2021/05/22 12:09:06;;;;;;;2.50;1.17;;;31.60;29.20;;;;;;6160613;23;20017;-86
2021/05/22 12:11:34;;;;;;;1.92;1.30;;;31.30;29.40;;;;;;6160401;23;20005;-89
2021/05/22 12:14:07;;;;;;;1.48;1.33;;;31.40;30.20;;;;;;6160311;23;20021;-90
2021/05/22 12:16:34;;;;;;;1.27;1.17;;;31.80;29.30;;;;;;6160490;23;20071;-88
2021/05/22 12:19:11;;;;;;;1.25;1.15;;;32.00;29.20;;;;;;6158393;23;20040;-87
2021/05/22 12:21:37;;;;;;;2.80;1.20;;;32.50;29.10;;;;;;6159740;23;20083;-92
2021/05/22 12:24:12;;;;;;;2.67;1.10;;;33.10;29.20;;;;;;6161213;23;20427;-90
2021/05/22 12:26:39;;;;;;;3.97;1.45;;;33.80;28.50;;;;;;6159680;23;20379;-87
2021/05/22 12:29:09;;;;;;;2.78;0.95;;;34.20;28.50;;;;;;6159290;23;20017;-87
2021/05/22 12:31:35;;;;;;;1.20;1.10;;;35.10;28.50;;;;;;6159695;23;20001;-89
2021/05/22 12:34:05;;;;;;;2.80;1.05;;;36.00;28.60;;;;;;6161130;23;20013;-84
2021/05/22 12:36:32;;;;;;;3.42;1.05;;;36.50;28.10;;;;;;6187095;23;20013;-89
2021/05/22 12:39:11;;;;;;;1.17;1.00;;;36.60;28.10;;;;;;6190047;23;20050;-91
2021/05/22 12:41:37;;;;;;;2.63;1.00;;;36.90;28.00;;;;;;6192169;23;20016;-90
2021/05/22 12:44:04;;;;;;;1.85;1.10;;;36.40;27.30;;;;;;6163285;23;20012;-87
2021/05/22 12:46:38;;;;;;;1.33;1.00;;;35.90;27.40;;;;;;6169534;23;20012;-87
2021/05/22 12:49:13;;;;;;;0.82;0.80;;;35.70;27.50;;;;;;6177612;23;20000;-86
2021/05/22 12:51:42;;;;;;;1.00;0.90;;;35.60;27.40;;;;;;6184865;23;20004;-86
2021/05/22 12:54:30;;;;;;;2.17;1.08;;;35.70;27.70;;;;;;6173770;23;20013;-90
2021/05/22 12:57:05;;;;;;;0.90;0.90;;;35.80;27.90;;;;;;6160939;23;20013;-88
2021/05/22 12:59:35;;;;;;;2.05;1.10;;;35.80;26.90;;;;;;6160382;23;20098;-91